Time;durP1;ratioP1;P1;durP2;ratioP2;P2;SDS_P1;SDS_P2;PMS_P1;PMS_P2;Temp;Humidity;BMP_temperature;BMP_pressure;BME280_temperature;BME280_humidity;BME280_pressure;Samples;Min_cycle;Max_cycle;Signal;HPM_P1;HPM_P2
2021/08/09 00:01:38;;;;;;;1.83;1.10;;;18.40;99.90;;;;;;4971620;28;20454;-80
2021/08/09 00:04:07;;;;;;;1.20;0.80;;;18.40;99.90;;;;;;4971863;28;20561;-80
2021/08/09 00:06:35;;;;;;;1.20;0.80;;;18.50;99.90;;;;;;4971795;28;20447;-80
2021/08/09 00:09:06;;;;;;;1.73;0.90;;;18.50;99.90;;;;;;4985906;28;20450;-80
2021/08/09 00:11:35;;;;;;;1.50;0.80;;;18.40;99.90;;;;;;4984983;28;20482;-80
2021/08/09 00:14:03;;;;;;;0.80;0.80;;;18.40;99.90;;;;;;4971413;28;20443;-80
2021/08/09 00:16:31;;;;;;;2.60;1.00;;;18.50;99.90;;;;;;4970914;28;20493;-80
2021/08/09 00:18:59;;;;;;;0.93;0.83;;;18.40;99.90;;;;;;4970945;28;20470;-79
2021/08/09 00:21:28;;;;;;;1.43;0.80;;;18.20;99.90;;;;;;4971140;28;20832;-80
2021/08/09 00:23:56;;;;;;;1.80;1.10;;;18.10;99.90;;;;;;4971845;28;20457;-80
2021/08/09 00:26:29;;;;;;;3.53;1.23;;;18.20;99.90;;;;;;4986177;28;20837;-80
2021/08/09 00:28:57;;;;;;;2.00;1.20;;;18.20;99.90;;;;;;4970988;28;20446;-80
2021/08/09 00:31:26;;;;;;;1.70;0.90;;;18.10;99.90;;;;;;4970992;28;21066;-80
2021/08/09 00:33:54;;;;;;;0.90;0.80;;;18.10;99.90;;;;;;4971482;28;20457;-80
2021/08/09 00:36:22;;;;;;;2.70;1.13;;;18.10;99.90;;;;;;4971614;28;20942;-80
2021/08/09 00:38:50;;;;;;;1.10;1.00;;;18.10;99.90;;;;;;4971284;28;20473;-80
2021/08/09 00:41:18;;;;;;;1.27;0.80;;;18.10;99.90;;;;;;4971352;28;20549;-80
2021/08/09 00:43:48;;;;;;;1.37;1.00;;;18.10;99.90;;;;;;4970852;28;20496;-80
2021/08/09 00:46:16;;;;;;;1.10;1.00;;;18.00;99.90;;;;;;4971296;28;20443;-80
2021/08/09 00:48:44;;;;;;;2.17;1.00;;;17.90;99.90;;;;;;4971015;28;20486;-81
2021/08/09 00:51:13;;;;;;;4.20;1.00;;;17.90;99.90;;;;;;4970773;28;20496;-80
2021/08/09 00:53:42;;;;;;;3.70;1.10;;;18.00;99.90;;;;;;4970567;28;20455;-80
2021/08/09 00:56:10;;;;;;;1.33;0.80;;;18.00;99.90;;;;;;4985916;28;20450;-80
2021/08/09 00:58:39;;;;;;;1.40;0.80;;;18.10;99.90;;;;;;4970493;28;20445;-79
2021/08/09 01:01:09;;;;;;;1.30;1.20;;;18.00;99.90;;;;;;4985966;28;20474;-80
2021/08/09 01:03:37;;;;;;;3.10;1.10;;;18.20;99.90;;;;;;4970410;28;20465;-79
2021/08/09 01:06:05;;;;;;;1.03;0.90;;;18.30;99.90;;;;;;4971237;28;20481;-80
2021/08/09 01:08:46;;;;;;;4.10;1.00;;;18.40;99.90;;;;;;4970275;28;20454;-79
2021/08/09 01:11:23;;;;;;;1.73;1.13;;;18.40;99.90;;;;;;4969723;28;20954;-80
2021/08/09 01:13:55;;;;;;;1.27;0.90;;;18.40;99.90;;;;;;4985354;28;20867;-80
2021/08/09 01:16:28;;;;;;;0.83;0.83;;;18.50;99.90;;;;;;4971715;28;20458;-80
2021/08/09 01:19:01;;;;;;;1.07;0.90;;;18.40;99.90;;;;;;4970054;28;20828;-80
2021/08/09 01:21:33;;;;;;;1.17;0.90;;;18.40;99.90;;;;;;4970795;28;20684;-80
2021/08/09 01:24:13;;;;;;;3.30;1.00;;;18.40;99.90;;;;;;4970116;28;20447;-80
2021/08/09 01:26:47;;;;;;;1.60;0.90;;;18.40;99.90;;;;;;4971199;28;20571;-80
2021/08/09 01:29:25;;;;;;;1.20;1.10;;;18.30;99.90;;;;;;4971298;28;20445;-80
2021/08/09 01:31:55;;;;;;;1.10;0.93;;;18.20;99.90;;;;;;4972757;28;20547;-80
2021/08/09 01:34:25;;;;;;;2.13;0.90;;;18.20;99.90;;;;;;4974353;28;20474;-80
2021/08/09 01:36:55;;;;;;;1.93;1.30;;;18.10;99.90;;;;;;4974422;28;20552;-81
2021/08/09 01:39:23;;;;;;;1.60;1.00;;;18.10;99.90;;;;;;4974237;28;20429;-80
2021/08/09 01:41:53;;;;;;;1.70;1.10;;;18.10;99.90;;;;;;4973813;28;20528;-80
2021/08/09 01:44:24;;;;;;;4.80;1.20;;;18.00;99.90;;;;;;4973966;28;20459;-80
2021/08/09 01:46:53;;;;;;;2.70;0.90;;;18.00;99.90;;;;;;4974756;28;20448;-80
2021/08/09 01:49:22;;;;;;;2.60;1.20;;;17.90;99.90;;;;;;4974206;28;21011;-80
2021/08/09 01:51:51;;;;;;;1.23;1.13;;;17.90;99.90;;;;;;4973681;28;20483;-79
2021/08/09 01:54:20;;;;;;;1.73;1.00;;;17.90;99.90;;;;;;4974255;28;20451;-80
2021/08/09 01:56:49;;;;;;;1.07;1.07;;;17.90;99.90;;;;;;4973704;28;20458;-80
2021/08/09 01:59:17;;;;;;;1.73;1.10;;;17.90;99.90;;;;;;4973278;28;20964;-80
2021/08/09 02:01:46;;;;;;;1.53;0.93;;;17.90;99.90;;;;;;4973655;28;20466;-80
2021/08/09 02:04:15;;;;;;;1.33;0.87;;;17.80;99.90;;;;;;4974240;28;20445;-80
2021/08/09 02:06:43;;;;;;;5.27;1.10;;;17.80;99.90;;;;;;4973409;28;20498;-80
2021/08/09 02:09:11;;;;;;;1.00;0.80;;;17.80;99.90;;;;;;4973265;28;20468;-80
2021/08/09 02:11:46;;;;;;;2.00;0.90;;;17.80;99.90;;;;;;4986703;28;20844;-80
2021/08/09 02:14:18;;;;;;;1.10;1.00;;;17.80;99.90;;;;;;4974357;28;20536;-80
2021/08/09 02:16:53;;;;;;;1.07;0.80;;;17.80;99.90;;;;;;4972872;28;20467;-80
2021/08/09 02:19:27;;;;;;;0.80;0.80;;;17.80;99.90;;;;;;4973773;28;20448;-79
2021/08/09 02:22:02;;;;;;;1.73;1.03;;;17.80;99.90;;;;;;4973284;28;20529;-80
2021/08/09 02:24:33;;;;;;;1.10;1.00;;;17.80;99.90;;;;;;4973753;28;20530;-79
2021/08/09 02:27:07;;;;;;;0.97;0.90;;;17.80;99.90;;;;;;4973054;28;20847;-80
2021/08/09 02:29:39;;;;;;;0.90;0.90;;;17.80;99.90;;;;;;4973318;28;20502;-80
2021/08/09 02:32:10;;;;;;;4.20;1.23;;;17.80;99.90;;;;;;4973561;28;20492;-80
2021/08/09 02:34:40;;;;;;;1.00;0.90;;;17.80;99.90;;;;;;4973727;28;21334;-80
2021/08/09 02:37:09;;;;;;;2.17;0.90;;;17.70;99.90;;;;;;4973017;28;20440;-80
2021/08/09 02:39:39;;;;;;;1.30;0.90;;;17.70;99.90;;;;;;4972734;28;20508;-81
2021/08/09 02:42:08;;;;;;;2.63;0.90;;;17.70;99.90;;;;;;4972789;28;20501;-80
2021/08/09 02:44:38;;;;;;;1.90;1.10;;;17.70;99.90;;;;;;4987957;28;21068;-80
2021/08/09 02:47:11;;;;;;;0.90;0.90;;;17.60;99.90;;;;;;4971652;28;20487;-80
2021/08/09 02:49:45;;;;;;;15.60;7.20;;;17.60;99.90;;;;;;4972402;28;20440;-80
2021/08/09 02:52:14;;;;;;;44.37;18.33;;;17.70;99.90;;;;;;4972728;28;20463;-80
2021/08/09 02:54:45;;;;;;;4.17;2.73;;;17.60;99.90;;;;;;4972555;28;21022;-80
2021/08/09 02:57:14;;;;;;;7.90;4.50;;;17.50;99.90;;;;;;4973103;28;20449;-79
2021/08/09 02:59:42;;;;;;;2.37;1.63;;;17.50;99.90;;;;;;4972674;28;20514;-80
2021/08/09 03:02:12;;;;;;;4.00;1.00;;;17.40;99.90;;;;;;4973031;28;21065;-80
2021/08/09 03:04:42;;;;;;;0.80;0.80;;;17.40;99.90;;;;;;4973096;28;20527;-80
2021/08/09 03:07:11;;;;;;;1.10;1.00;;;17.40;99.90;;;;;;4972766;28;20448;-79
2021/08/09 03:09:40;;;;;;;1.10;1.00;;;17.40;99.90;;;;;;4986489;28;20455;-80
2021/08/09 03:12:08;;;;;;;1.60;1.07;;;17.40;99.90;;;;;;4970972;28;20471;-80
2021/08/09 03:14:36;;;;;;;1.67;0.90;;;17.40;99.90;;;;;;4972534;28;20483;-80
2021/08/09 03:17:05;;;;;;;1.70;0.90;;;17.40;99.90;;;;;;4972602;28;20472;-80
2021/08/09 03:19:35;;;;;;;1.10;0.77;;;17.30;99.90;;;;;;4971464;28;21296;-79
2021/08/09 03:22:03;;;;;;;1.10;1.00;;;17.30;99.90;;;;;;4970648;28;20474;-80
2021/08/09 03:24:32;;;;;;;0.90;0.90;;;17.30;99.90;;;;;;4971413;28;20459;-80
2021/08/09 03:27:00;;;;;;;1.43;1.00;;;17.30;99.90;;;;;;4987040;28;20463;-80
2021/08/09 03:29:28;;;;;;;1.77;1.20;;;17.30;99.90;;;;;;4971027;28;20542;-80
2021/08/09 03:31:57;;;;;;;1.13;1.03;;;17.20;99.90;;;;;;4972086;28;20460;-80
2021/08/09 03:34:25;;;;;;;1.50;0.90;;;17.20;99.90;;;;;;4971334;28;20541;-80
2021/08/09 03:36:54;;;;;;;1.03;0.93;;;17.20;99.90;;;;;;4972213;28;20443;-80
2021/08/09 03:39:23;;;;;;;0.80;0.80;;;17.20;99.90;;;;;;4970937;28;20451;-80
2021/08/09 03:41:51;;;;;;;0.90;0.80;;;17.20;99.90;;;;;;4987003;28;20474;-80
2021/08/09 03:44:19;;;;;;;1.50;0.90;;;17.20;99.90;;;;;;4971046;28;20814;-80
2021/08/09 03:46:47;;;;;;;1.60;1.50;;;17.20;99.90;;;;;;4972215;28;20940;-79
2021/08/09 03:49:15;;;;;;;1.67;0.83;;;17.20;99.90;;;;;;4970861;28;20439;-80
2021/08/09 03:51:43;;;;;;;1.13;0.83;;;17.20;99.90;;;;;;4971480;28;20566;-80
2021/08/09 03:54:13;;;;;;;1.27;1.17;;;17.20;99.90;;;;;;4971429;28;20917;-80
2021/08/09 03:56:41;;;;;;;1.37;0.90;;;17.20;99.90;;;;;;4971529;28;20443;-79
2021/08/09 03:59:09;;;;;;;1.20;1.00;;;17.20;99.90;;;;;;4970753;28;20948;-80
2021/08/09 04:01:39;;;;;;;1.97;1.10;;;17.10;99.90;;;;;;4971864;28;20471;-80
2021/08/09 04:04:08;;;;;;;1.70;1.00;;;17.10;99.90;;;;;;4970595;28;20499;-79
2021/08/09 04:06:36;;;;;;;1.23;1.10;;;17.10;99.90;;;;;;4971478;28;20445;-80
2021/08/09 04:09:06;;;;;;;1.00;1.00;;;17.10;99.90;;;;;;4969413;28;20459;-80
2021/08/09 04:11:36;;;;;;;0.90;0.80;;;17.10;99.90;;;;;;4970019;28;20474;-80
2021/08/09 04:14:04;;;;;;;1.60;1.07;;;17.10;99.90;;;;;;4969147;28;20490;-81
2021/08/09 04:16:33;;;;;;;0.87;0.70;;;17.10;99.90;;;;;;4971593;28;20544;-80
2021/08/09 04:19:01;;;;;;;1.20;1.10;;;17.10;99.90;;;;;;4970049;28;20447;-80
2021/08/09 04:21:29;;;;;;;1.10;0.97;;;17.10;99.90;;;;;;4971213;28;20467;-79
2021/08/09 04:23:57;;;;;;;1.37;0.97;;;17.10;99.90;;;;;;4970826;28;21009;-80
2021/08/09 04:26:25;;;;;;;2.33;2.07;;;17.10;99.90;;;;;;4971406;28;20505;-80
2021/08/09 04:28:54;;;;;;;1.53;0.90;;;17.10;99.90;;;;;;4970310;28;20456;-77
2021/08/09 04:31:23;;;;;;;2.17;1.20;;;17.10;99.90;;;;;;4971156;28;20464;-80
2021/08/09 04:33:51;;;;;;;1.53;1.00;;;17.00;99.90;;;;;;4971042;28;20473;-79
2021/08/09 04:36:19;;;;;;;1.23;1.13;;;17.00;99.90;;;;;;4971227;28;20475;-79
2021/08/09 04:38:47;;;;;;;1.60;1.37;;;17.10;99.90;;;;;;4970335;28;20456;-80
2021/08/09 04:41:15;;;;;;;1.20;1.10;;;17.00;99.90;;;;;;4970990;28;20473;-79
2021/08/09 04:43:44;;;;;;;1.00;0.87;;;17.10;99.90;;;;;;4971251;28;20465;-80
2021/08/09 04:46:13;;;;;;;1.43;0.90;;;17.10;99.90;;;;;;4969474;28;21056;-79
2021/08/09 04:48:41;;;;;;;1.17;1.07;;;17.00;99.90;;;;;;4970133;28;20968;-80
2021/08/09 04:51:09;;;;;;;1.07;1.03;;;17.00;99.90;;;;;;4970585;28;20472;-80
2021/08/09 04:53:38;;;;;;;0.90;0.90;;;17.10;99.90;;;;;;4970687;28;20996;-80
2021/08/09 04:56:07;;;;;;;1.00;0.90;;;17.10;99.90;;;;;;4971640;28;20753;-80
2021/08/09 04:58:35;;;;;;;2.13;1.10;;;17.20;99.90;;;;;;4969784;28;21190;-80
2021/08/09 05:01:03;;;;;;;2.60;1.20;;;17.20;99.90;;;;;;4970112;28;20456;-79
2021/08/09 05:03:39;;;;;;;1.27;1.03;;;17.20;99.90;;;;;;4971078;28;20434;-80
2021/08/09 05:06:11;;;;;;;1.80;1.20;;;17.10;99.90;;;;;;4974434;28;20500;-80
2021/08/09 05:08:39;;;;;;;0.90;0.90;;;17.00;99.90;;;;;;4974618;28;20846;-80
2021/08/09 05:11:07;;;;;;;12.27;1.23;;;16.90;99.90;;;;;;4971779;28;20558;-79
2021/08/09 05:13:48;;;;;;;1.13;1.00;;;16.90;99.90;;;;;;4975094;28;20527;-80
2021/08/09 05:16:17;;;;;;;1.20;1.10;;;16.90;99.90;;;;;;4973955;28;20456;-79
2021/08/09 05:18:48;;;;;;;1.43;1.20;;;17.00;99.90;;;;;;4974909;28;20523;-79
2021/08/09 05:21:17;;;;;;;1.10;1.00;;;17.00;99.90;;;;;;4973182;28;20460;-79
2021/08/09 05:23:46;;;;;;;1.10;1.00;;;17.00;99.90;;;;;;4974739;28;20531;-80
2021/08/09 05:26:14;;;;;;;1.10;0.80;;;17.00;99.90;;;;;;4988353;28;20449;-80
2021/08/09 05:28:42;;;;;;;0.90;0.90;;;17.10;99.90;;;;;;4974531;28;20444;-80
2021/08/09 05:31:12;;;;;;;10.63;1.50;;;17.00;99.90;;;;;;4973232;28;20451;-79
2021/08/09 05:33:41;;;;;;;1.07;0.97;;;17.00;99.90;;;;;;4989442;28;20546;-79
2021/08/09 05:36:10;;;;;;;1.73;0.90;;;17.10;99.90;;;;;;4989780;28;20447;-79
2021/08/09 05:38:39;;;;;;;0.90;0.90;;;17.10;99.90;;;;;;4974412;28;20436;-80
2021/08/09 05:41:07;;;;;;;1.50;1.10;;;17.00;99.90;;;;;;4972899;28;21015;-80
2021/08/09 05:43:35;;;;;;;2.10;1.10;;;17.00;99.90;;;;;;4973228;28;20449;-81
2021/08/09 05:46:04;;;;;;;0.80;0.80;;;17.10;99.90;;;;;;4973230;28;20512;-80
2021/08/09 05:48:33;;;;;;;1.43;0.90;;;17.20;99.90;;;;;;4974040;28;20473;-80
2021/08/09 05:51:01;;;;;;;2.70;1.43;;;17.20;99.90;;;;;;4974298;28;20464;-79
2021/08/09 05:53:32;;;;;;;1.30;1.07;;;17.10;99.90;;;;;;4974327;28;20886;-80
2021/08/09 05:56:00;;;;;;;1.60;0.80;;;17.20;99.90;;;;;;4973670;28;20479;-80
2021/08/09 05:58:28;;;;;;;1.47;1.37;;;17.20;99.90;;;;;;4973614;28;20457;-80
2021/08/09 06:00:56;;;;;;;1.70;1.00;;;17.40;99.90;;;;;;4972257;28;20460;-80
2021/08/09 06:03:24;;;;;;;1.30;1.20;;;17.40;99.90;;;;;;4988761;28;20446;-80
2021/08/09 06:05:53;;;;;;;2.47;1.07;;;17.50;99.90;;;;;;4973027;28;20470;-80
2021/08/09 06:08:22;;;;;;;0.87;0.87;;;17.60;99.90;;;;;;4973792;28;20434;-80
2021/08/09 06:10:52;;;;;;;2.70;1.20;;;17.60;99.90;;;;;;4971661;28;20847;-78
2021/08/09 06:13:20;;;;;;;1.67;0.90;;;17.60;99.90;;;;;;4973555;28;20456;-80
2021/08/09 06:15:48;;;;;;;2.60;1.00;;;17.60;99.90;;;;;;4972308;28;20489;-79
2021/08/09 06:18:16;;;;;;;2.60;0.90;;;17.40;99.90;;;;;;4973125;28;20449;-80
2021/08/09 06:20:44;;;;;;;1.40;1.10;;;17.60;99.90;;;;;;4972593;28;21130;-80
2021/08/09 06:23:13;;;;;;;1.73;0.80;;;17.60;99.90;;;;;;4973420;28;20965;-79
2021/08/09 06:25:42;;;;;;;1.80;0.80;;;17.70;99.90;;;;;;4973005;28;20485;-80
2021/08/09 06:28:16;;;;;;;1.10;0.90;;;17.80;99.90;;;;;;4987448;28;20458;-79
2021/08/09 06:30:44;;;;;;;1.03;0.90;;;17.80;99.90;;;;;;4972697;28;20521;-79
2021/08/09 06:33:12;;;;;;;1.03;0.90;;;17.80;99.90;;;;;;4971228;28;20467;-79
2021/08/09 06:35:40;;;;;;;1.40;0.90;;;17.90;99.90;;;;;;4987679;28;20993;-80
2021/08/09 06:38:09;;;;;;;1.30;1.20;;;17.90;99.90;;;;;;4971146;28;20450;-79
2021/08/09 06:40:42;;;;;;;0.80;0.80;;;17.80;99.90;;;;;;4972944;28;20462;-80
2021/08/09 06:43:10;;;;;;;1.30;0.77;;;18.00;99.90;;;;;;4971270;28;20447;-79
2021/08/09 06:45:42;;;;;;;1.43;0.80;;;18.10;99.90;;;;;;4971637;28;20447;-80
2021/08/09 06:48:12;;;;;;;2.43;0.90;;;18.20;99.90;;;;;;4972338;28;20474;-79
2021/08/09 06:50:41;;;;;;;0.80;0.80;;;18.50;99.90;;;;;;4972762;28;20446;-79
2021/08/09 06:53:09;;;;;;;1.23;0.80;;;18.80;99.90;;;;;;4972858;28;20443;-80
2021/08/09 06:55:38;;;;;;;1.63;0.83;;;19.10;99.90;;;;;;4972035;28;20498;-80
2021/08/09 06:58:06;;;;;;;1.23;1.03;;;19.30;99.90;;;;;;4951729;29;20461;-80
2021/08/09 07:00:35;;;;;;;1.00;0.80;;;19.60;99.90;;;;;;4953854;29;20495;-80
2021/08/09 07:03:08;;;;;;;0.97;0.90;;;19.70;99.90;;;;;;4952797;29;20462;-80
2021/08/09 07:05:41;;;;;;;0.97;0.70;;;19.90;99.90;;;;;;4953473;28;20459;-80
2021/08/09 07:08:09;;;;;;;0.90;0.80;;;19.90;99.90;;;;;;4951420;29;20547;-80
2021/08/09 07:10:38;;;;;;;1.40;0.80;;;20.00;99.90;;;;;;4953866;28;20985;-80
2021/08/09 07:13:07;;;;;;;3.23;0.90;;;20.20;99.90;;;;;;4949736;28;20460;-79
2021/08/09 07:15:35;;;;;;;2.20;0.90;;;20.50;99.90;;;;;;4971405;28;20476;-80
2021/08/09 07:18:04;;;;;;;0.60;0.60;;;20.60;99.90;;;;;;4973437;28;20458;-80
2021/08/09 07:20:33;;;;;;;0.97;0.90;;;20.80;99.90;;;;;;4972060;28;20873;-79
2021/08/09 07:23:01;;;;;;;2.40;0.80;;;21.00;99.90;;;;;;4953156;28;20460;-80
2021/08/09 07:25:30;;;;;;;0.70;0.70;;;21.10;99.90;;;;;;4954126;28;20433;-80
2021/08/09 07:27:58;;;;;;;0.77;0.73;;;21.40;99.90;;;;;;4952327;28;20448;-80
2021/08/09 07:30:26;;;;;;;2.30;0.87;;;21.50;99.90;;;;;;4953702;29;20449;-80
2021/08/09 07:32:55;;;;;;;0.80;0.80;;;21.50;99.90;;;;;;4953043;28;20480;-80
2021/08/09 07:35:24;;;;;;;0.70;0.60;;;21.60;99.90;;;;;;4954407;29;20831;-80
2021/08/09 07:37:53;;;;;;;0.77;0.77;;;21.70;99.90;;;;;;4972300;28;20492;-80
2021/08/09 07:40:22;;;;;;;0.70;0.70;;;21.70;99.90;;;;;;4973066;28;20468;-80
2021/08/09 07:42:52;;;;;;;0.70;0.70;;;21.60;99.90;;;;;;4972345;28;20924;-80
2021/08/09 07:45:20;;;;;;;1.03;0.80;;;21.50;99.90;;;;;;4971950;28;20482;-80
2021/08/09 07:47:52;;;;;;;2.30;0.80;;;21.50;99.90;;;;;;4972221;28;20811;-80
2021/08/09 07:50:21;;;;;;;1.37;0.80;;;21.40;99.90;;;;;;4971640;28;20523;-80
2021/08/09 07:52:49;;;;;;;1.33;1.10;;;21.50;99.90;;;;;;4971454;28;20487;-80
2021/08/09 07:55:19;;;;;;;1.00;0.70;;;21.40;99.90;;;;;;4972914;28;20525;-80
2021/08/09 07:57:47;;;;;;;1.40;0.93;;;21.50;99.90;;;;;;4972798;28;20513;-80
2021/08/09 08:00:16;;;;;;;0.90;0.80;;;21.50;99.90;;;;;;4972354;28;20441;-80
2021/08/09 08:02:44;;;;;;;0.73;0.73;;;21.40;99.90;;;;;;4972470;28;20475;-80
2021/08/09 08:05:12;;;;;;;0.70;0.70;;;21.40;99.90;;;;;;4973340;28;20439;-80
2021/08/09 08:07:41;;;;;;;1.43;0.73;;;21.40;99.90;;;;;;4972722;28;20439;-80
2021/08/09 08:10:10;;;;;;;0.77;0.77;;;21.30;99.90;;;;;;4971958;28;20880;-80
2021/08/09 08:12:40;;;;;;;1.33;0.77;;;21.30;99.90;;;;;;4970757;28;20994;-80
2021/08/09 08:15:09;;;;;;;0.87;0.70;;;21.30;99.90;;;;;;4972737;28;20514;-80
2021/08/09 08:17:37;;;;;;;0.80;0.80;;;21.30;99.90;;;;;;4988191;28;20447;-80
2021/08/09 08:20:07;;;;;;;1.53;0.50;;;21.30;99.90;;;;;;4972954;28;20467;-80
2021/08/09 08:22:35;;;;;;;1.00;0.70;;;21.20;99.90;;;;;;4972907;28;20530;-79
2021/08/09 08:25:03;;;;;;;0.80;0.80;;;21.20;99.90;;;;;;4972942;28;20447;-80
2021/08/09 08:27:31;;;;;;;0.80;0.70;;;21.10;99.90;;;;;;4988295;28;20471;-80
2021/08/09 08:30:01;;;;;;;0.70;0.70;;;21.20;99.90;;;;;;4973738;28;20496;-80
2021/08/09 08:32:49;;;;;;;1.60;0.70;;;21.20;99.90;;;;;;4973269;28;20573;-80
2021/08/09 08:35:17;;;;;;;0.77;0.70;;;21.20;99.90;;;;;;4972915;28;20447;-80
2021/08/09 08:37:46;;;;;;;0.80;0.80;;;21.30;99.90;;;;;;4973422;28;20443;-80
2021/08/09 08:40:15;;;;;;;2.40;1.17;;;21.40;99.90;;;;;;4973146;28;20489;-81
2021/08/09 08:42:46;;;;;;;0.73;0.73;;;21.30;99.90;;;;;;4973545;28;20457;-81
2021/08/09 08:45:19;;;;;;;0.90;0.70;;;21.30;99.90;;;;;;4970653;28;20707;-80
2021/08/09 08:47:49;;;;;;;0.63;0.63;;;21.40;99.90;;;;;;4973297;28;20947;-79
2021/08/09 08:50:20;;;;;;;1.03;0.73;;;21.40;99.90;;;;;;4971589;28;20516;-80
2021/08/09 08:52:52;;;;;;;1.00;0.70;;;21.40;99.90;;;;;;4972124;28;20574;-80
2021/08/09 08:55:21;;;;;;;2.70;0.80;;;21.50;99.90;;;;;;4970436;28;20874;-80
2021/08/09 08:57:49;;;;;;;0.70;0.70;;;21.50;99.90;;;;;;4972924;28;20520;-80
2021/08/09 09:00:19;;;;;;;0.80;0.80;;;21.60;99.90;;;;;;4971601;28;20455;-80
2021/08/09 09:02:48;;;;;;;0.70;0.60;;;21.50;99.90;;;;;;4972773;28;20708;-80
2021/08/09 09:05:17;;;;;;;0.87;0.70;;;21.30;99.90;;;;;;4972060;28;20448;-80
2021/08/09 09:07:47;;;;;;;0.60;0.60;;;21.30;99.90;;;;;;4972500;28;20455;-80
2021/08/09 09:10:22;;;;;;;2.37;1.03;;;21.40;99.90;;;;;;4971024;28;20501;-80
2021/08/09 09:13:11;;;;;;;1.07;0.83;;;21.40;99.90;;;;;;4971243;28;20477;-80
2021/08/09 09:16:06;;;;;;;0.60;0.60;;;21.50;99.90;;;;;;4972046;28;20471;-80
2021/08/09 09:18:47;;;;;;;1.20;0.60;;;21.50;99.90;;;;;;4972236;28;20499;-80
2021/08/09 09:21:28;;;;;;;0.60;0.60;;;21.70;99.90;;;;;;4971761;28;20489;-80
2021/08/09 09:24:06;;;;;;;1.20;0.70;;;21.80;99.90;;;;;;4971724;28;20509;-80
2021/08/09 09:26:37;;;;;;;0.60;0.60;;;21.90;99.90;;;;;;4973055;28;20435;-80
2021/08/09 09:29:11;;;;;;;0.70;0.70;;;21.90;99.90;;;;;;4970772;28;20446;-80
2021/08/09 09:31:42;;;;;;;4.13;0.80;;;21.90;99.90;;;;;;4971943;28;20536;-80
2021/08/09 09:34:12;;;;;;;1.30;0.80;;;22.00;99.90;;;;;;4971440;28;20457;-80
2021/08/09 09:36:53;;;;;;;1.10;0.70;;;22.10;99.90;;;;;;4972128;28;20526;-80
2021/08/09 09:39:32;;;;;;;0.83;0.70;;;22.10;99.90;;;;;;4970412;28;20439;-80
2021/08/09 09:42:03;;;;;;;1.50;0.77;;;22.20;99.90;;;;;;4971774;28;20520;-80
2021/08/09 09:44:33;;;;;;;1.50;0.80;;;22.20;99.90;;;;;;4970831;28;20446;-80
2021/08/09 09:47:20;;;;;;;1.70;0.90;;;22.20;99.90;;;;;;4986622;28;20468;-80
2021/08/09 09:49:49;;;;;;;3.23;0.90;;;22.00;99.90;;;;;;4986429;28;20450;-79
2021/08/09 09:52:34;;;;;;;1.47;0.90;;;21.90;99.90;;;;;;4975093;28;20476;-81
2021/08/09 09:55:05;;;;;;;1.20;0.80;;;21.90;99.90;;;;;;4974844;28;20509;-80
2021/08/09 09:57:35;;;;;;;1.63;0.80;;;22.00;99.90;;;;;;4974856;28;20485;-80
2021/08/09 10:00:08;;;;;;;0.83;0.80;;;22.10;99.90;;;;;;4974779;28;20969;-80
2021/08/09 10:02:39;;;;;;;1.63;0.90;;;22.30;99.90;;;;;;4974493;28;20536;-80
2021/08/09 10:05:08;;;;;;;1.13;0.90;;;22.40;99.90;;;;;;4989295;28;20451;-79
2021/08/09 10:07:38;;;;;;;2.13;0.90;;;22.40;99.90;;;;;;4989106;28;20476;-80
2021/08/09 10:10:09;;;;;;;1.70;1.07;;;22.40;99.90;;;;;;4987952;28;20482;-80
2021/08/09 10:12:38;;;;;;;0.90;0.80;;;22.30;99.90;;;;;;4986768;28;20474;-80
2021/08/09 10:15:08;;;;;;;1.53;0.80;;;22.40;99.90;;;;;;4972648;28;20461;-81
2021/08/09 10:17:39;;;;;;;1.13;0.90;;;22.50;99.90;;;;;;4973562;28;20536;-80
2021/08/09 10:20:10;;;;;;;1.73;0.87;;;22.60;99.90;;;;;;4973310;28;20469;-80
2021/08/09 10:22:38;;;;;;;1.80;1.00;;;22.30;99.90;;;;;;4973982;28;20469;-79
2021/08/09 10:25:09;;;;;;;1.40;1.00;;;22.20;99.90;;;;;;4974730;28;20434;-80
2021/08/09 10:27:56;;;;;;;1.07;0.70;;;22.30;99.90;;;;;;4973193;28;20434;-80
2021/08/09 10:30:25;;;;;;;1.07;0.87;;;22.40;99.90;;;;;;4989200;28;20450;-79
2021/08/09 10:32:56;;;;;;;0.83;0.80;;;22.50;99.90;;;;;;4989490;28;20471;-80
2021/08/09 10:35:58;;;;;;;1.73;1.20;;;22.60;99.90;;;;;;4974312;28;20521;-80
2021/08/09 10:38:27;;;;;;;2.10;1.00;;;22.60;99.90;;;;;;4974016;28;20478;-80
2021/08/09 10:41:37;;;;;;;4.17;1.00;;;22.60;99.90;;;;;;4973390;28;21168;-79
2021/08/09 10:44:25;;;;;;;1.47;0.90;;;22.60;99.90;;;;;;4973777;28;20467;-80
2021/08/09 10:46:57;;;;;;;1.03;0.93;;;22.60;99.90;;;;;;4972999;28;20451;-80
2021/08/09 10:49:57;;;;;;;1.80;0.70;;;22.60;99.90;;;;;;4973654;28;20446;-80
2021/08/09 10:52:40;;;;;;;1.20;0.90;;;22.50;99.90;;;;;;4972579;28;20477;-80
2021/08/09 10:55:42;;;;;;;1.77;0.70;;;22.60;99.90;;;;;;4974088;28;20470;-81
2021/08/09 10:58:31;;;;;;;0.90;0.80;;;22.70;99.90;;;;;;4973314;28;20485;-79
2021/08/09 11:00:59;;;;;;;0.90;0.63;;;22.90;99.90;;;;;;4973018;28;21025;-80
2021/08/09 11:03:27;;;;;;;0.90;0.70;;;23.00;99.90;;;;;;4973875;28;20450;-80
2021/08/09 11:05:57;;;;;;;1.00;0.90;;;23.10;99.90;;;;;;4974239;28;20458;-80
2021/08/09 11:08:32;;;;;;;0.80;0.70;;;23.20;99.90;;;;;;4973733;28;20518;-79
2021/08/09 11:11:02;;;;;;;1.33;0.90;;;23.20;99.90;;;;;;4970816;28;20514;-80
2021/08/09 11:13:53;;;;;;;0.70;0.70;;;23.20;99.90;;;;;;4973029;28;20590;-80
2021/08/09 11:16:31;;;;;;;1.40;0.80;;;23.30;99.90;;;;;;4972654;28;20443;-80
2021/08/09 11:19:00;;;;;;;1.00;0.80;;;23.30;99.90;;;;;;4973303;28;20483;-79
2021/08/09 11:21:30;;;;;;;1.20;0.93;;;23.40;99.90;;;;;;4972383;28;20483;-81
2021/08/09 11:23:58;;;;;;;0.87;0.70;;;23.40;99.90;;;;;;4974183;28;20788;-80
2021/08/09 11:26:28;;;;;;;0.83;0.83;;;23.40;99.90;;;;;;4988381;28;20451;-80
2021/08/09 11:29:01;;;;;;;1.57;0.90;;;23.50;99.90;;;;;;4973323;28;20494;-79
2021/08/09 11:31:29;;;;;;;1.53;1.17;;;23.50;99.90;;;;;;4988040;28;20471;-80
2021/08/09 11:34:07;;;;;;;1.07;0.90;;;23.60;99.90;;;;;;4973319;28;20474;-82
2021/08/09 11:36:37;;;;;;;2.60;0.80;;;23.60;99.90;;;;;;4987371;28;20463;-80
2021/08/09 11:39:05;;;;;;;2.40;0.87;;;23.60;99.90;;;;;;4973415;28;20494;-80
2021/08/09 11:41:33;;;;;;;4.80;3.87;;;23.60;99.90;;;;;;4972408;28;20526;-80
2021/08/09 11:44:04;;;;;;;1.63;1.50;;;23.60;99.90;;;;;;4987887;28;20463;-80
2021/08/09 11:46:34;;;;;;;2.80;2.50;;;23.60;99.90;;;;;;4986783;28;20525;-80
2021/08/09 11:49:09;;;;;;;3.00;1.50;;;23.50;99.90;;;;;;4973443;28;20447;-79
2021/08/09 11:51:39;;;;;;;2.03;0.80;;;23.50;99.90;;;;;;4972800;28;20467;-80
2021/08/09 11:54:07;;;;;;;1.00;0.90;;;23.60;99.90;;;;;;4973169;28;20488;-79
2021/08/09 11:56:37;;;;;;;2.30;0.90;;;23.60;99.90;;;;;;4973878;28;20447;-79
2021/08/09 11:59:11;;;;;;;1.43;0.73;;;23.60;99.90;;;;;;4972732;28;20536;-79
2021/08/09 12:01:41;;;;;;;1.10;1.00;;;23.60;99.90;;;;;;4971478;28;20467;-80
2021/08/09 12:04:12;;;;;;;1.30;0.90;;;23.60;99.90;;;;;;4973073;28;20463;-80
2021/08/09 12:06:49;;;;;;;2.57;0.90;;;23.70;99.90;;;;;;4972974;28;20458;-80
2021/08/09 12:09:23;;;;;;;1.27;0.90;;;23.70;99.90;;;;;;4971876;28;20447;-79
2021/08/09 12:11:59;;;;;;;1.63;0.80;;;23.60;99.90;;;;;;4971573;28;20981;-80
2021/08/09 12:14:27;;;;;;;1.00;0.70;;;23.60;99.90;;;;;;4971989;28;20517;-80
2021/08/09 12:16:59;;;;;;;1.23;0.93;;;23.70;99.90;;;;;;4973100;28;20835;-80
2021/08/09 12:19:37;;;;;;;2.40;0.80;;;23.70;99.90;;;;;;4971870;28;20994;-80
2021/08/09 12:22:13;;;;;;;0.80;0.80;;;23.80;99.90;;;;;;4973121;28;20479;-80
2021/08/09 12:24:43;;;;;;;2.50;0.90;;;23.80;99.90;;;;;;4972070;28;20459;-80
2021/08/09 12:27:17;;;;;;;2.13;1.23;;;23.80;99.90;;;;;;4973348;28;20866;-80
2021/08/09 12:30:02;;;;;;;2.30;1.20;;;23.80;99.90;;;;;;4971989;28;20443;-79
2021/08/09 12:32:30;;;;;;;1.77;0.93;;;23.80;99.90;;;;;;4988090;28;20463;-80
2021/08/09 12:34:59;;;;;;;2.40;0.80;;;23.80;99.90;;;;;;4971607;28;20506;-79
2021/08/09 12:37:29;;;;;;;1.80;1.20;;;23.60;99.90;;;;;;4972688;28;20520;-80
2021/08/09 12:40:10;;;;;;;1.67;1.00;;;23.60;99.90;;;;;;4971901;28;20872;-79
2021/08/09 12:42:39;;;;;;;1.27;0.80;;;23.60;99.90;;;;;;4972600;28;20458;-79
2021/08/09 12:45:08;;;;;;;2.13;0.97;;;23.60;99.90;;;;;;4971900;28;20463;-79
2021/08/09 12:47:36;;;;;;;2.30;0.80;;;23.60;99.90;;;;;;4973347;28;20823;-79
2021/08/09 12:50:07;;;;;;;2.23;1.10;;;23.70;99.90;;;;;;4986517;28;20475;-79
2021/08/09 12:52:37;;;;;;;1.27;0.90;;;23.70;99.90;;;;;;4987254;28;20475;-79
2021/08/09 12:55:06;;;;;;;1.33;0.90;;;23.80;99.90;;;;;;4971271;28;20517;-80
2021/08/09 12:57:36;;;;;;;4.33;1.40;;;23.80;99.90;;;;;;4972862;28;20967;-79
2021/08/09 13:00:07;;;;;;;0.97;0.90;;;23.90;99.90;;;;;;4971670;28;20451;-80
2021/08/09 13:02:35;;;;;;;1.27;0.80;;;23.90;99.90;;;;;;4972544;28;20826;-80
2021/08/09 13:05:04;;;;;;;0.80;0.80;;;24.00;99.90;;;;;;4971902;28;20439;-80